Young, Kyle
United StatesManBorn 19852009 – 2022Runner id 78051
Events
37
2009 – 2022
Best pace
10.637
km/h · 2013
Best finish
7th
of 374 · 2014
Distance raced
3,901
km · splits not double-counted
Pace over time
km/h · higher is faster
Pace over time: 37 races from 2009 to 2022, ranging from 3.97 to 10.64 kilometres per hour, where higher is faster. A second, age-graded series is drawn above it; the gap between the two is the age credit.
- Actual pace
- Age-graded pace
Results
| Date | Event | Distance | Result | Pace km/h | Placing |
|---|---|---|---|---|---|
| 2009-07-18 | Lone Ranger 24 hr Ultra-MarathonUnited States | 24h | 95.260 km | 3.969 | 94/152 |
| 2010-07-17 | 24h | 124.247 km | 5.177 | 38/158 | |
| 2010-12-11 | 50km | 5:39:08 h | 8.846 | 13/33 | |
| 2011-07-16 | 24h | 115.499 km | 4.812 | 64/198 | |
| 2011-09-04 | 12h | 64.373 km | 5.364 | 72/136 | |
| 2011-10-23 | Tussey Mountainback 50 Miler - Open raceUnited States | 50mi | 11:21:47 h | 7.081 | 105/114 |
| 2012-05-20 | Dirty German Endurance Fest 50 MileUnited States | 50mi | 10:56:44 h | 7.352 | 39/47 |
| 2012-07-14 | 24h | 108.868 km | 4.536 | 88/195 | |
| 2012-09-02 | 12h | 64.373 km | 5.364 | 91/162 | |
| 2013-03-02 | 50km | 4:42:02 h | 10.637 | 5/48 | |
| 2013-10-26 | 24h | 166.760 km | 6.948 | 4/20 | |
| 2014-05-03 | 50mi | 9:28:42 h | 8.490 | 19/63 | |
| 2014-07-13 | 50mi | 8:13:49 h | 9.777 | 7/374 | |
| 2014-08-03 | Power of Four Trail RunUnited States | 50km | 5:47:27 h | 8.634 | 10/52 |
| 2014-08-16 | 100mi | 24:52:08 h | 6.471 | 87/356 | |
| 2014-10-11 | 24h | 126.397 km | 5.267 | 9/26 | |
| 2015-02-14 | 55km | 5:17:34 h | 10.392 | 39/296 | |
| 2015-03-28 | 50mi | 8:53:21 h | 9.052 | 5/35 | |
| 2015-04-18 | 52.4mi | 8:46:06 h | 9.618 | 6/14 | |
| 2015-05-23 | Booneville Backroads Ultra 100 MileUnited States | 100mi | 17:25:27 h | 9.236 | 1/11 |
| 2015-07-12 | 50mi | 7:56:41 h | 10.128 | 10/355 | |
| 2015-08-22 | 100mi | 21:37:03 h | 7.445 | 18/312 | |
| 2015-09-18 | 100mi | 25:16:12 h | 6.369 | 21/45 | |
| 2016-02-13 | 55km | 5:41:31 h | 9.663 | 71/289 | |
| 2016-05-28 | 100km | 10:56:10 h | 9.144 | 1/21 | |
| 2016-09-23 | 100mi | 21:29:48 h | 7.486 | 9/168 | |
| 2017-07-22 | 100km | 15:43:16 h | 6.361 | 32/226 | |
| 2017-09-16 | 100mi | 29:06:19 h | 5.529 | 25/86 | |
| 2018-06-23 | 50mi | 12:04:02 h | 6.668 | 61/208 | |
| 2018-07-28 | 100km | 14:45:32 h | 6.776 | 20/264 | |
| 2018-09-07 | 100mi | 28:59:36 h | 5.551 | 50/187 | |
| 2019-09-13 | 100mi | 26:19:38 h | 6.113 | 26/40 | |
| 2021-05-01 | 51.4mi | 9:29:03 h | 8.722 | 6/22 | |
| 2021-06-26 | 50mi | 11:07:37 h | 7.232 | 36/181 | |
| 2021-09-24 | 100mi | 27:05:09 h | 5.942 | 40/199 | |
| 2022-02-19 | 55km | 6:21:09 h | 8.658 | 74/175 | |
| 2022-06-25 | Western States 100 Mile Endurance RunUnited States | 100mi | 28:25:46 h | 5.661 | 201/305 |